createdAt,value
2022-11-29T00:01:43.248Z,3.90
2022-11-29T00:04:12.178Z,3.53
2022-11-29T00:06:41.010Z,3.96
2022-11-29T00:09:13.754Z,3.99
2022-11-29T00:12:02.148Z,3.98
2022-11-29T00:14:30.917Z,4.04
2022-11-29T00:17:02.481Z,4.02
2022-11-29T00:19:31.532Z,3.79
2022-11-29T00:22:00.000Z,4.09
2022-11-29T00:24:28.568Z,4.06
2022-11-29T00:26:56.853Z,4.06
2022-11-29T00:29:25.150Z,3.99
2022-11-29T00:31:53.428Z,4.03
2022-11-29T00:34:23.068Z,4.02
2022-11-29T00:36:51.333Z,4.02
2022-11-29T00:39:19.841Z,3.85
2022-11-29T00:41:48.161Z,4.08
2022-11-29T00:44:20.183Z,4.17
2022-11-29T00:46:49.216Z,3.54
2022-11-29T00:49:17.814Z,3.08
2022-11-29T00:51:47.712Z,3.96
2022-11-29T00:54:16.138Z,4.01
2022-11-29T00:56:44.486Z,4.07
2022-11-29T00:59:12.733Z,3.98
2022-11-29T01:01:41.148Z,4.01
2022-11-29T01:04:10.765Z,4.01
2022-11-29T01:06:39.035Z,3.97
2022-11-29T01:09:08.678Z,3.97
2022-11-29T01:11:37.123Z,4.04
2022-11-29T01:14:05.995Z,4.12
2022-11-29T01:16:34.550Z,3.64
2022-11-29T01:19:03.327Z,4.04
2022-11-29T01:21:32.014Z,4.06
2022-11-29T01:24:01.774Z,3.99
2022-11-29T01:26:33.106Z,3.95
2022-11-29T01:29:01.555Z,4.02
2022-11-29T01:31:32.540Z,4.01
2022-11-29T01:34:03.486Z,4.01
2022-11-29T01:36:32.411Z,3.69
2022-11-29T01:39:01.004Z,4.06
2022-11-29T01:41:33.383Z,4.02
2022-11-29T01:44:05.502Z,3.96
2022-11-29T01:46:36.915Z,3.94
2022-11-29T01:49:11.384Z,4.01
2022-11-29T01:51:44.380Z,3.94
2022-11-29T01:54:14.089Z,4.01
2022-11-29T01:56:46.651Z,4.03
2022-11-29T01:59:20.807Z,3.92
2022-11-29T02:01:49.139Z,4.02
2022-11-29T02:04:18.701Z,4.02
2022-11-29T02:06:47.821Z,3.98
2022-11-29T02:09:21.781Z,3.96
2022-11-29T02:12:16.452Z,3.14
2022-11-29T02:15:14.475Z,3.95
2022-11-29T02:18:02.524Z,3.96
2022-11-29T02:21:04.872Z,4.07
2022-11-29T02:24:15.100Z,3.99
2022-11-29T02:27:41.608Z,3.97
2022-11-29T02:30:27.004Z,3.80
2022-11-29T02:33:41.256Z,4.03
2022-11-29T02:36:34.091Z,3.99
2022-11-29T02:39:39.448Z,4.12
2022-11-29T02:42:56.041Z,3.98
2022-11-29T02:45:51.793Z,4.07
2022-11-29T02:48:54.956Z,4.19
2022-11-29T02:51:32.365Z,4.01
2022-11-29T02:54:07.920Z,4.16
2022-11-29T02:56:44.499Z,4.03
2022-11-29T02:59:28.290Z,4.07
2022-11-29T03:02:14.656Z,4.07
2022-11-29T03:04:51.065Z,4.10
2022-11-29T03:07:29.553Z,4.07
2022-11-29T03:10:05.669Z,4.20
2022-11-29T03:12:42.149Z,4.22
2022-11-29T03:15:24.045Z,4.21
2022-11-29T03:18:04.154Z,3.98
2022-11-29T03:20:50.129Z,4.08
2022-11-29T03:23:25.934Z,4.14
2022-11-29T03:25:59.346Z,4.08
2022-11-29T03:28:32.771Z,4.05
2022-11-29T03:31:09.096Z,4.03
2022-11-29T03:33:49.485Z,4.19
2022-11-29T03:36:30.925Z,4.21
2022-11-29T03:39:06.361Z,4.19
2022-11-29T03:41:42.612Z,4.12
2022-11-29T03:44:17.386Z,4.22
2022-11-29T03:46:53.667Z,4.21
2022-11-29T03:49:27.882Z,4.22
2022-11-29T03:52:13.675Z,3.80
2022-11-29T03:54:56.746Z,4.18
2022-11-29T03:57:33.407Z,4.15
2022-11-29T04:00:07.175Z,4.03
2022-11-29T04:03:12.739Z,4.23
2022-11-29T04:06:05.418Z,4.23
2022-11-29T04:08:58.798Z,4.21
2022-11-29T04:12:22.523Z,4.12
2022-11-29T04:15:40.356Z,4.23
2022-11-29T04:18:53.234Z,4.20
2022-11-29T04:21:35.275Z,4.13
2022-11-29T04:25:07.852Z,4.16
2022-11-29T04:28:15.108Z,4.26
2022-11-29T04:30:55.269Z,3.66
2022-11-29T04:34:15.481Z,4.26
2022-11-29T04:37:19.838Z,4.31
2022-11-29T04:40:05.041Z,4.29
2022-11-29T04:43:11.120Z,4.22
2022-11-29T04:46:14.721Z,4.23
2022-11-29T04:49:04.909Z,4.18
2022-11-29T04:51:59.416Z,4.28
2022-11-29T04:54:36.040Z,4.25
2022-11-29T04:57:10.399Z,4.29
2022-11-29T04:59:45.817Z,4.21
2022-11-29T05:02:36.149Z,4.29
2022-11-29T05:05:21.545Z,4.32
2022-11-29T05:08:02.505Z,4.37
2022-11-29T05:10:42.471Z,4.29
2022-11-29T05:13:21.440Z,4.32
2022-11-29T05:16:13.288Z,4.35
2022-11-29T05:19:29.989Z,4.45
2022-11-29T05:22:16.008Z,4.40
2022-11-29T05:25:03.072Z,4.31
2022-11-29T05:27:45.594Z,4.37
2022-11-29T05:30:19.381Z,4.33
2022-11-29T05:32:57.914Z,4.34
2022-11-29T05:35:52.436Z,4.31
2022-11-29T05:39:01.749Z,4.33
2022-11-29T05:41:55.032Z,4.28
2022-11-29T05:44:33.590Z,4.37
2022-11-29T05:47:06.755Z,4.26
2022-11-29T05:49:43.387Z,4.36
2022-11-29T05:52:25.437Z,4.40
2022-11-29T05:55:20.753Z,4.41
2022-11-29T05:57:57.059Z,4.38
2022-11-29T06:00:26.683Z,4.48
2022-11-29T06:03:04.912Z,4.23
2022-11-29T06:05:39.693Z,4.25
2022-11-29T06:08:16.235Z,4.51
2022-11-29T06:10:57.689Z,4.46
2022-11-29T06:13:39.692Z,4.43
2022-11-29T06:16:31.500Z,4.47
2022-11-29T06:19:30.312Z,4.38
2022-11-29T06:22:26.466Z,4.52
2022-11-29T06:25:13.462Z,4.38
2022-11-29T06:27:57.584Z,4.50
2022-11-29T06:30:31.689Z,4.48
2022-11-29T06:33:07.476Z,4.57
2022-11-29T06:35:46.351Z,4.43
2022-11-29T06:38:22.803Z,4.50
2022-11-29T06:40:54.940Z,4.25
2022-11-29T06:43:27.815Z,4.49
2022-11-29T06:46:02.058Z,4.49
2022-11-29T06:48:36.643Z,4.54
2022-11-29T06:51:18.302Z,4.57
2022-11-29T06:53:56.827Z,4.49
2022-11-29T06:56:34.304Z,4.60
2022-11-29T06:59:12.035Z,4.59
2022-11-29T07:01:47.537Z,4.45
2022-11-29T07:04:45.441Z,4.48
2022-11-29T07:07:20.570Z,4.46
2022-11-29T07:09:50.968Z,4.56
2022-11-29T07:12:20.637Z,4.66
2022-11-29T07:14:49.766Z,4.64
2022-11-29T07:17:26.095Z,4.57
2022-11-29T07:20:03.813Z,4.58
2022-11-29T07:22:50.723Z,4.59
2022-11-29T07:25:31.257Z,4.55
2022-11-29T07:28:12.315Z,4.65
2022-11-29T07:30:51.525Z,4.64
2022-11-29T07:33:28.645Z,4.53
2022-11-29T07:36:07.060Z,4.58
2022-11-29T07:38:51.747Z,4.60
2022-11-29T07:41:29.058Z,4.63
2022-11-29T07:44:06.637Z,4.64
2022-11-29T07:46:34.941Z,4.66
2022-11-29T07:49:03.255Z,4.67
2022-11-29T07:51:33.046Z,4.72
2022-11-29T07:54:02.730Z,4.68
2022-11-29T07:56:30.971Z,4.49
2022-11-29T07:58:59.319Z,4.69
2022-11-29T08:01:27.651Z,4.68
2022-11-29T08:03:55.956Z,4.74
2022-11-29T08:06:27.715Z,4.80
2022-11-29T08:08:58.904Z,4.82
2022-11-29T08:11:29.141Z,4.13
2022-11-29T08:13:58.645Z,4.61
2022-11-29T08:16:27.215Z,4.81
2022-11-29T08:18:55.597Z,4.86
2022-11-29T08:21:24.105Z,3.22
2022-11-29T08:23:52.895Z,4.75
2022-11-29T08:26:25.616Z,4.80
2022-11-29T08:28:59.477Z,4.78
2022-11-29T08:31:27.883Z,4.84
2022-11-29T08:33:56.329Z,4.33
2022-11-29T08:36:24.586Z,4.81
2022-11-29T08:39:00.097Z,3.68
2022-11-29T08:41:31.538Z,4.74
2022-11-29T08:44:01.183Z,4.86
2022-11-29T08:46:43.366Z,4.83
2022-11-29T08:49:11.626Z,4.82
2022-11-29T08:51:40.006Z,4.97
2022-11-29T08:54:07.657Z,4.92
2022-11-29T08:59:27.623Z,5.07
2022-11-29T09:01:56.464Z,5.02
2022-11-29T09:04:24.851Z,5.08
2022-11-29T09:06:53.764Z,5.07
2022-11-29T09:09:22.100Z,5.02
2022-11-29T09:11:50.509Z,5.01
2022-11-29T09:14:19.948Z,5.01
2022-11-29T09:16:49.658Z,4.95
2022-11-29T09:19:18.121Z,4.98
2022-11-29T09:21:46.459Z,5.01
2022-11-29T09:24:14.889Z,5.09
2022-11-29T09:26:46.919Z,4.95
2022-11-29T09:29:16.895Z,4.98
2022-11-29T09:31:46.172Z,5.11
2022-11-29T09:34:16.411Z,4.70
2022-11-29T09:36:45.107Z,5.12
2022-11-29T09:39:13.412Z,5.12
2022-11-29T09:42:27.216Z,5.09
2022-11-29T09:45:04.589Z,5.21
2022-11-29T09:48:03.293Z,5.22
2022-11-29T09:50:36.056Z,5.29
2022-11-29T09:53:37.963Z,5.29
2022-11-29T09:56:19.191Z,5.31
2022-11-29T09:58:54.060Z,4.52
2022-11-29T10:01:28.388Z,5.21
2022-11-29T10:04:02.405Z,5.23
2022-11-29T10:06:38.837Z,5.29
2022-11-29T10:09:16.629Z,5.39
2022-11-29T10:11:58.422Z,5.41
2022-11-29T10:14:32.550Z,5.41
2022-11-29T10:17:08.256Z,4.96
2022-11-29T10:19:40.169Z,5.14
2022-11-29T10:22:21.130Z,5.32
2022-11-29T10:24:54.476Z,5.26
2022-11-29T10:27:25.049Z,5.28
2022-11-29T10:29:53.969Z,5.23
2022-11-29T10:32:24.708Z,5.40
2022-11-29T10:34:53.211Z,5.02
2022-11-29T10:37:24.915Z,5.49
2022-11-29T10:39:58.729Z,5.49
2022-11-29T10:42:46.992Z,5.44
2022-11-29T10:45:24.028Z,5.39
2022-11-29T10:47:55.554Z,5.39
2022-11-29T10:50:27.481Z,5.30
2022-11-29T10:53:02.198Z,5.47
2022-11-29T10:55:37.893Z,5.59
2022-11-29T10:58:15.935Z,5.51
2022-11-29T11:00:54.102Z,5.56
2022-11-29T11:03:39.401Z,5.52
2022-11-29T11:06:13.356Z,5.58
2022-11-29T11:08:47.531Z,5.76
2022-11-29T11:11:25.014Z,5.45
2022-11-29T11:14:01.518Z,5.60
2022-11-29T11:16:35.598Z,5.52
2022-11-29T11:19:28.933Z,5.57
2022-11-29T11:21:58.378Z,5.00
2022-11-29T11:24:31.637Z,5.56
2022-11-29T11:27:01.762Z,5.67
2022-11-29T11:29:37.438Z,5.64
2022-11-29T11:32:09.189Z,5.63
2022-11-29T11:34:39.447Z,5.67
2022-11-29T11:37:26.980Z,5.53
2022-11-29T11:39:58.808Z,5.62
2022-11-29T11:42:38.760Z,5.71
2022-11-29T11:45:32.649Z,5.64
2022-11-29T11:48:05.761Z,5.51
2022-11-29T11:50:38.947Z,5.61
2022-11-29T11:53:21.282Z,5.47
2022-11-29T11:56:00.093Z,5.63
2022-11-29T11:58:32.982Z,5.65
2022-11-29T12:01:16.177Z,5.53
2022-11-29T12:03:55.627Z,5.65
2022-11-29T12:06:41.014Z,5.64
2022-11-29T12:09:21.082Z,4.97
2022-11-29T12:12:01.557Z,5.59
2022-11-29T12:14:40.474Z,5.57
2022-11-29T12:17:20.372Z,5.60
2022-11-29T12:20:02.945Z,5.66
2022-11-29T12:22:43.941Z,5.77
2022-11-29T12:25:20.799Z,5.65
2022-11-29T12:27:51.888Z,5.58
2022-11-29T12:30:21.048Z,5.68
2022-11-29T12:33:17.854Z,5.56
2022-11-29T12:36:18.464Z,5.59
2022-11-29T12:39:04.807Z,5.58
2022-11-29T12:41:43.092Z,5.74
2022-11-29T12:44:30.838Z,5.70
2022-11-29T12:50:12.067Z,5.04
2022-11-29T12:52:48.601Z,5.71
2022-11-29T12:55:26.141Z,5.72
2022-11-29T12:58:11.115Z,5.47
2022-11-29T13:00:54.186Z,5.66
2022-11-29T13:03:31.862Z,5.39
2022-11-29T13:06:12.449Z,4.66
2022-11-29T13:09:04.827Z,5.65
2022-11-29T13:11:37.744Z,5.46
2022-11-29T13:14:41.616Z,5.66
2022-11-29T13:17:06.323Z,5.70
2022-11-29T13:19:41.640Z,5.55
2022-11-29T13:22:18.564Z,5.57
2022-11-29T13:24:51.453Z,5.54
2022-11-29T13:27:24.433Z,5.71
2022-11-29T13:29:52.804Z,5.55
2022-11-29T13:32:34.241Z,5.58
2022-11-29T13:35:08.461Z,5.56
2022-11-29T13:37:49.384Z,5.53
2022-11-29T13:40:32.548Z,5.46
2022-11-29T13:43:12.200Z,5.58
2022-11-29T13:45:46.095Z,5.41
2022-11-29T13:48:37.035Z,4.91
2022-11-29T13:51:29.562Z,5.41
2022-11-29T13:54:01.564Z,5.50
2022-11-29T13:56:36.676Z,5.51
2022-11-29T13:59:14.920Z,5.43
2022-11-29T14:01:48.975Z,5.38
2022-11-29T14:04:32.490Z,5.29
2022-11-29T14:07:09.122Z,5.32
2022-11-29T14:09:44.867Z,5.25
2022-11-29T14:12:38.310Z,5.10
2022-11-29T14:15:28.376Z,4.78
2022-11-29T14:17:58.710Z,5.17
2022-11-29T14:20:59.088Z,5.15
2022-11-29T14:23:42.368Z,5.17
2022-11-29T14:26:30.919Z,5.23
2022-11-29T14:29:00.332Z,5.10
2022-11-29T14:31:50.654Z,4.45
2022-11-29T14:34:35.550Z,5.01
2022-11-29T14:37:25.140Z,5.12
2022-11-29T14:39:56.241Z,5.03
2022-11-29T14:42:32.434Z,4.98
2022-11-29T14:45:04.806Z,4.99
2022-11-29T14:47:37.159Z,5.08
2022-11-29T14:50:10.398Z,4.93
2022-11-29T14:52:51.103Z,5.07
2022-11-29T14:55:34.163Z,5.07
2022-11-29T14:58:20.321Z,5.06
2022-11-29T15:01:10.935Z,4.91
2022-11-29T15:03:50.427Z,4.88
2022-11-29T15:06:27.411Z,4.86
2022-11-29T15:09:04.185Z,4.85
2022-11-29T15:11:44.499Z,4.58
2022-11-29T15:14:28.000Z,4.77
2022-11-29T15:17:18.727Z,4.70
2022-11-29T15:20:29.373Z,4.64
2022-11-29T15:23:00.966Z,4.65
2022-11-29T15:25:32.218Z,4.52
2022-11-29T15:28:02.840Z,4.49
2022-11-29T15:30:34.792Z,4.53
2022-11-29T15:33:06.660Z,4.06
2022-11-29T15:35:36.412Z,4.30
2022-11-29T15:38:05.316Z,4.44
2022-11-29T15:40:37.234Z,4.50
2022-11-29T15:43:17.115Z,4.56
2022-11-29T15:45:49.782Z,4.56
2022-11-29T15:48:23.495Z,4.64
2022-11-29T15:50:59.424Z,4.55
2022-11-29T15:53:33.568Z,4.48
2022-11-29T15:56:06.761Z,4.59
2022-11-29T15:58:35.750Z,4.53
2022-11-29T16:01:05.515Z,4.51
2022-11-29T16:03:37.151Z,4.46
2022-11-29T16:06:10.008Z,4.39
2022-11-29T16:08:42.881Z,4.39
2022-11-29T16:11:19.153Z,4.38
2022-11-29T16:14:16.688Z,4.41
2022-11-29T16:16:47.776Z,3.73
2022-11-29T16:19:34.402Z,4.48
2022-11-29T16:22:16.460Z,4.39
2022-11-29T16:25:05.183Z,4.34
2022-11-29T16:27:37.262Z,4.41
2022-11-29T16:30:07.164Z,4.34
2022-11-29T16:32:38.130Z,4.31
2022-11-29T16:35:12.478Z,4.46
2022-11-29T16:37:43.906Z,4.40
2022-11-29T16:40:23.653Z,4.46
2022-11-29T16:43:20.706Z,4.48
2022-11-29T16:45:49.050Z,4.39
2022-11-29T16:48:30.826Z,4.36
2022-11-29T16:51:26.135Z,4.57
2022-11-29T16:53:55.935Z,4.53
2022-11-29T16:56:27.289Z,4.56
2022-11-29T16:59:25.878Z,4.52
2022-11-29T17:01:51.724Z,4.46
2022-11-29T17:04:24.047Z,4.39
2022-11-29T17:06:58.484Z,4.35
2022-11-29T17:09:29.254Z,4.53
2022-11-29T17:11:59.950Z,4.37
2022-11-29T17:14:30.332Z,4.49
2022-11-29T17:17:01.143Z,4.49
2022-11-29T17:19:30.282Z,4.51
2022-11-29T17:21:58.867Z,4.41
2022-11-29T17:24:27.269Z,4.43
2022-11-29T17:26:55.551Z,4.53
2022-11-29T17:29:23.822Z,3.68
2022-11-29T17:31:53.557Z,4.45
2022-11-29T17:34:22.113Z,4.55
2022-11-29T17:36:50.932Z,4.57
2022-11-29T17:39:20.292Z,4.60
2022-11-29T17:41:48.754Z,4.45
2022-11-29T17:44:17.021Z,4.45
2022-11-29T17:46:45.275Z,4.43
2022-11-29T17:49:14.847Z,4.37
2022-11-29T17:51:52.237Z,4.49
2022-11-29T17:54:22.083Z,4.35
2022-11-29T17:56:50.744Z,4.36
2022-11-29T17:59:19.298Z,4.29
2022-11-29T18:01:48.107Z,4.34
2022-11-29T18:04:18.148Z,4.31
2022-11-29T18:06:50.152Z,4.31
2022-11-29T18:09:20.070Z,4.37
2022-11-29T18:11:50.698Z,4.36
2022-11-29T18:14:22.686Z,3.23
2022-11-29T18:16:51.326Z,4.20
2022-11-29T18:19:22.973Z,4.36
2022-11-29T18:21:51.487Z,4.40
2022-11-29T18:24:20.266Z,4.40
2022-11-29T18:26:49.069Z,4.51
2022-11-29T18:29:17.581Z,4.51
2022-11-29T18:31:47.484Z,4.54
2022-11-29T18:34:16.402Z,4.45
2022-11-29T18:36:48.035Z,4.48
2022-11-29T18:39:19.159Z,4.50
2022-11-29T18:41:49.563Z,4.51
2022-11-29T18:44:21.491Z,4.42
2022-11-29T18:46:49.924Z,4.52
2022-11-29T18:49:19.438Z,4.38
2022-11-29T18:51:50.351Z,4.49
2022-11-29T18:54:19.669Z,4.42
2022-11-29T18:56:50.884Z,4.44
2022-11-29T18:59:19.309Z,4.47
2022-11-29T19:01:51.647Z,4.28
2022-11-29T19:04:21.825Z,4.24
2022-11-29T19:06:51.481Z,4.15
2022-11-29T19:09:22.417Z,3.21
2022-11-29T19:11:50.951Z,4.23
2022-11-29T19:14:19.921Z,4.18
2022-11-29T19:16:50.668Z,4.20
2022-11-29T19:19:19.817Z,4.19
2022-11-29T19:21:48.810Z,3.13
2022-11-29T19:24:19.907Z,4.31
2022-11-29T19:26:50.277Z,4.39
2022-11-29T19:29:18.704Z,4.20
2022-11-29T19:31:47.124Z,4.28
2022-11-29T19:34:15.461Z,4.32
2022-11-29T19:36:45.017Z,4.46
2022-11-29T19:39:16.429Z,4.43
2022-11-29T19:41:48.050Z,4.39
2022-11-29T19:44:16.641Z,4.41
2022-11-29T19:46:48.603Z,4.40
2022-11-29T19:49:17.527Z,3.79
2022-11-29T19:51:45.834Z,4.41
2022-11-29T19:54:14.182Z,4.29
2022-11-29T19:56:42.733Z,4.48
2022-11-29T19:59:12.358Z,4.54
2022-11-29T20:01:42.284Z,4.57
2022-11-29T20:04:14.012Z,4.46
2022-11-29T20:06:42.718Z,4.62
2022-11-29T20:09:11.859Z,4.43
2022-11-29T20:11:40.345Z,4.56
2022-11-29T20:14:09.227Z,4.46
2022-11-29T20:16:39.578Z,4.20
2022-11-29T20:19:12.631Z,4.39
2022-11-29T20:21:44.672Z,4.55
2022-11-29T20:24:15.100Z,4.20
2022-11-29T20:26:46.128Z,4.61
2022-11-29T20:29:15.119Z,4.45
2022-11-29T20:31:50.696Z,4.33
2022-11-29T20:34:20.539Z,4.34
2022-11-29T20:37:20.027Z,4.32
2022-11-29T20:39:54.174Z,4.37
2022-11-29T20:42:59.579Z,4.50
2022-11-29T20:45:28.868Z,4.31
2022-11-29T20:48:03.922Z,4.41
2022-11-29T20:50:33.780Z,4.33
2022-11-29T20:53:17.144Z,4.50
2022-11-29T20:55:48.263Z,4.32
2022-11-29T20:58:18.282Z,4.44
2022-11-29T21:00:47.025Z,4.45
2022-11-29T21:03:18.622Z,4.38
2022-11-29T21:05:47.841Z,4.50
2022-11-29T21:08:17.875Z,3.83
2022-11-29T21:10:46.511Z,4.47
2022-11-29T21:13:16.168Z,4.45
2022-11-29T21:15:45.445Z,4.46
2022-11-29T21:18:26.198Z,4.34
2022-11-29T21:21:09.180Z,4.51
2022-11-29T21:23:53.739Z,4.55
2022-11-29T21:26:26.075Z,4.50
2022-11-29T21:29:13.075Z,4.48
2022-11-29T21:31:42.173Z,4.58
2022-11-29T21:34:14.575Z,4.58
2022-11-29T21:36:44.912Z,4.58
2022-11-29T21:39:16.805Z,3.84
2022-11-29T21:41:45.094Z,4.55
2022-11-29T21:44:13.331Z,4.54
2022-11-29T21:46:41.642Z,4.52
2022-11-29T21:49:11.363Z,4.63
2022-11-29T21:51:39.683Z,4.59
2022-11-29T21:54:07.935Z,4.45
2022-11-29T21:56:36.250Z,4.51
2022-11-29T21:59:05.051Z,4.46
2022-11-29T22:01:34.085Z,4.66
2022-11-29T22:04:02.565Z,4.52
2022-11-29T22:06:32.171Z,4.60
2022-11-29T22:09:00.755Z,4.55
2022-11-29T22:11:31.944Z,4.42
2022-11-29T22:14:15.155Z,4.49
2022-11-29T22:16:44.540Z,4.45
2022-11-29T22:19:14.751Z,4.44
2022-11-29T22:21:46.568Z,4.52
2022-11-29T22:24:16.852Z,4.48
2022-11-29T22:26:46.001Z,4.30
2022-11-29T22:29:14.922Z,4.52
2022-11-29T22:31:44.095Z,4.49
2022-11-29T22:34:12.844Z,4.52
2022-11-29T22:36:41.768Z,4.41
2022-11-29T22:39:11.593Z,4.49
2022-11-29T22:41:41.438Z,4.48
2022-11-29T22:44:10.478Z,4.53
2022-11-29T22:46:41.323Z,4.46
2022-11-29T22:49:10.592Z,4.46
2022-11-29T22:51:40.088Z,4.39
2022-11-29T22:54:11.579Z,3.84
2022-11-29T22:56:42.511Z,4.57
2022-11-29T22:59:11.073Z,4.51
2022-11-29T23:01:41.894Z,4.49
2022-11-29T23:04:12.511Z,4.43
2022-11-29T23:06:46.487Z,4.50
2022-11-29T23:09:21.191Z,4.50
2022-11-29T23:11:53.032Z,4.43
2022-11-29T23:14:23.103Z,4.42
2022-11-29T23:16:51.629Z,4.53
2022-11-29T23:19:20.714Z,4.34
2022-11-29T23:21:49.158Z,4.49
2022-11-29T23:24:18.848Z,4.52
2022-11-29T23:26:48.306Z,4.51
2022-11-29T23:29:19.212Z,4.42
2022-11-29T23:31:50.209Z,4.53
2022-11-29T23:34:18.711Z,4.39
2022-11-29T23:36:52.427Z,4.50
2022-11-29T23:39:22.675Z,4.55
2022-11-29T23:41:50.964Z,4.57
2022-11-29T23:44:19.229Z,4.41
2022-11-29T23:46:47.523Z,4.50
2022-11-29T23:49:15.831Z,4.41
2022-11-29T23:51:44.138Z,4.44
2022-11-29T23:54:12.366Z,4.59
2022-11-29T23:56:41.956Z,4.41
2022-11-29T23:59:10.246Z,4.64
